sensor_id;sensor_type;location;lat;lon;timestamp;P1;durP1;ratioP1;P2;durP2;ratioP2
71456;SDS011;59263;48.160;11.752;2022-08-06T00:02:20;14.93;;;8.35;;
71456;SDS011;59263;48.160;11.752;2022-08-06T00:04:48;15.03;;;8.13;;
71456;SDS011;59263;48.160;11.752;2022-08-06T00:07:14;14.63;;;7.10;;
71456;SDS011;59263;48.160;11.752;2022-08-06T00:09:39;13.13;;;6.10;;
71456;SDS011;59263;48.160;11.752;2022-08-06T00:12:05;15.80;;;6.47;;
71456;SDS011;59263;48.160;11.752;2022-08-06T00:14:31;13.10;;;6.70;;
71456;SDS011;59263;48.160;11.752;2022-08-06T00:16:57;15.23;;;5.70;;
71456;SDS011;59263;48.160;11.752;2022-08-06T00:19:23;10.50;;;4.93;;
71456;SDS011;59263;48.160;11.752;2022-08-06T00:21:49;10.87;;;5.40;;
71456;SDS011;59263;48.160;11.752;2022-08-06T00:24:15;11.35;;;6.00;;
71456;SDS011;59263;48.160;11.752;2022-08-06T00:26:41;13.50;;;4.80;;
71456;SDS011;59263;48.160;11.752;2022-08-06T00:29:06;11.82;;;5.18;;
71456;SDS011;59263;48.160;11.752;2022-08-06T00:31:32;10.35;;;4.30;;
71456;SDS011;59263;48.160;11.752;2022-08-06T00:33:57;14.17;;;5.80;;
71456;SDS011;59263;48.160;11.752;2022-08-06T00:36:27;11.75;;;4.85;;
71456;SDS011;59263;48.160;11.752;2022-08-06T00:38:53;10.95;;;5.20;;
71456;SDS011;59263;48.160;11.752;2022-08-06T00:41:19;11.90;;;5.23;;
71456;SDS011;59263;48.160;11.752;2022-08-06T00:43:45;18.20;;;7.47;;
71456;SDS011;59263;48.160;11.752;2022-08-06T00:46:11;10.43;;;4.30;;
71456;SDS011;59263;48.160;11.752;2022-08-06T00:48:36;11.20;;;5.60;;
71456;SDS011;59263;48.160;11.752;2022-08-06T00:51:02;12.27;;;5.38;;
71456;SDS011;59263;48.160;11.752;2022-08-06T00:53:28;14.57;;;6.63;;
71456;SDS011;59263;48.160;11.752;2022-08-06T00:55:54;18.37;;;5.97;;
71456;SDS011;59263;48.160;11.752;2022-08-06T00:58:19;14.77;;;6.40;;
71456;SDS011;59263;48.160;11.752;2022-08-06T01:00:44;20.08;;;7.20;;
71456;SDS011;59263;48.160;11.752;2022-08-06T01:03:10;14.47;;;7.23;;
71456;SDS011;59263;48.160;11.752;2022-08-06T01:05:36;16.00;;;6.27;;
71456;SDS011;59263;48.160;11.752;2022-08-06T01:08:01;14.80;;;6.28;;
71456;SDS011;59263;48.160;11.752;2022-08-06T01:10:27;15.30;;;6.72;;
71456;SDS011;59263;48.160;11.752;2022-08-06T01:12:53;16.80;;;7.07;;
71456;SDS011;59263;48.160;11.752;2022-08-06T01:15:18;17.00;;;6.20;;
71456;SDS011;59263;48.160;11.752;2022-08-06T01:18:27;17.73;;;7.33;;
71456;SDS011;59263;48.160;11.752;2022-08-06T01:20:46;17.17;;;6.93;;
71456;SDS011;59263;48.160;11.752;2022-08-06T01:26:36;17.63;;;7.07;;
71456;SDS011;59263;48.160;11.752;2022-08-06T01:31:55;11.38;;;5.70;;
71456;SDS011;59263;48.160;11.752;2022-08-06T01:34:38;13.38;;;5.18;;
71456;SDS011;59263;48.160;11.752;2022-08-06T01:39:38;15.47;;;4.63;;
71456;SDS011;59263;48.160;11.752;2022-08-06T01:42:06;16.40;;;4.88;;
71456;SDS011;59263;48.160;11.752;2022-08-06T01:44:35;12.82;;;4.60;;
71456;SDS011;59263;48.160;11.752;2022-08-06T01:47:06;11.40;;;5.10;;
71456;SDS011;59263;48.160;11.752;2022-08-06T01:49:33;10.60;;;5.13;;
71456;SDS011;59263;48.160;11.752;2022-08-06T01:52:03;13.30;;;5.10;;
71456;SDS011;59263;48.160;11.752;2022-08-06T01:54:30;12.48;;;4.40;;
71456;SDS011;59263;48.160;11.752;2022-08-06T01:57:00;13.93;;;4.78;;
71456;SDS011;59263;48.160;11.752;2022-08-06T01:59:34;11.55;;;5.32;;
71456;SDS011;59263;48.160;11.752;2022-08-06T02:02:03;10.65;;;5.03;;
71456;SDS011;59263;48.160;11.752;2022-08-06T02:04:33;11.63;;;4.80;;
71456;SDS011;59263;48.160;11.752;2022-08-06T02:07:01;13.23;;;5.53;;
71456;SDS011;59263;48.160;11.752;2022-08-06T02:09:30;11.98;;;5.28;;
71456;SDS011;59263;48.160;11.752;2022-08-06T02:12:02;12.93;;;5.10;;
71456;SDS011;59263;48.160;11.752;2022-08-06T02:14:31;12.77;;;4.68;;
71456;SDS011;59263;48.160;11.752;2022-08-06T02:16:59;11.87;;;4.60;;
71456;SDS011;59263;48.160;11.752;2022-08-06T02:19:28;11.98;;;4.43;;
71456;SDS011;59263;48.160;11.752;2022-08-06T02:21:57;11.25;;;4.75;;
71456;SDS011;59263;48.160;11.752;2022-08-06T02:24:25;14.35;;;4.55;;
71456;SDS011;59263;48.160;11.752;2022-08-06T02:26:53;12.57;;;4.63;;
71456;SDS011;59263;48.160;11.752;2022-08-06T02:29:20;10.97;;;4.50;;
71456;SDS011;59263;48.160;11.752;2022-08-06T02:31:48;14.55;;;4.40;;
71456;SDS011;59263;48.160;11.752;2022-08-06T02:34:14;10.90;;;4.20;;
71456;SDS011;59263;48.160;11.752;2022-08-06T02:36:41;11.70;;;4.40;;
71456;SDS011;59263;48.160;11.752;2022-08-06T02:39:13;11.70;;;4.60;;
71456;SDS011;59263;48.160;11.752;2022-08-06T02:42:18;11.63;;;4.25;;
71456;SDS011;59263;48.160;11.752;2022-08-06T02:47:36;10.47;;;4.50;;
71456;SDS011;59263;48.160;11.752;2022-08-06T02:50:07;12.82;;;4.68;;
71456;SDS011;59263;48.160;11.752;2022-08-06T02:52:37;10.75;;;4.78;;
71456;SDS011;59263;48.160;11.752;2022-08-06T02:55:53;11.43;;;4.82;;
71456;SDS011;59263;48.160;11.752;2022-08-06T02:58:00;13.05;;;4.90;;
71456;SDS011;59263;48.160;11.752;2022-08-06T03:00:30;10.53;;;4.40;;
71456;SDS011;59263;48.160;11.752;2022-08-06T03:02:59;10.43;;;4.70;;
71456;SDS011;59263;48.160;11.752;2022-08-06T03:05:27;11.07;;;4.75;;
71456;SDS011;59263;48.160;11.752;2022-08-06T03:07:54;12.60;;;4.60;;
71456;SDS011;59263;48.160;11.752;2022-08-06T03:10:23;14.25;;;5.22;;
71456;SDS011;59263;48.160;11.752;2022-08-06T03:12:51;15.13;;;5.20;;
71456;SDS011;59263;48.160;11.752;2022-08-06T03:15:19;12.27;;;4.72;;
71456;SDS011;59263;48.160;11.752;2022-08-06T03:17:47;11.63;;;5.28;;
71456;SDS011;59263;48.160;11.752;2022-08-06T03:20:18;11.50;;;5.53;;
71456;SDS011;59263;48.160;11.752;2022-08-06T03:22:49;12.00;;;5.55;;
71456;SDS011;59263;48.160;11.752;2022-08-06T03:25:16;12.33;;;5.27;;
71456;SDS011;59263;48.160;11.752;2022-08-06T03:27:43;12.20;;;5.97;;
71456;SDS011;59263;48.160;11.752;2022-08-06T03:30:14;16.50;;;6.05;;
71456;SDS011;59263;48.160;11.752;2022-08-06T03:32:41;14.52;;;6.47;;
71456;SDS011;59263;48.160;11.752;2022-08-06T03:35:07;16.20;;;6.70;;
71456;SDS011;59263;48.160;11.752;2022-08-06T03:37:33;15.23;;;7.00;;
71456;SDS011;59263;48.160;11.752;2022-08-06T03:39:59;19.13;;;7.80;;
71456;SDS011;59263;48.160;11.752;2022-08-06T03:42:25;17.70;;;8.57;;
71456;SDS011;59263;48.160;11.752;2022-08-06T03:44:51;20.60;;;8.57;;
71456;SDS011;59263;48.160;11.752;2022-08-06T03:47:19;17.27;;;8.10;;
71456;SDS011;59263;48.160;11.752;2022-08-06T03:49:51;20.55;;;8.77;;
71456;SDS011;59263;48.160;11.752;2022-08-06T03:52:23;23.85;;;9.32;;
71456;SDS011;59263;48.160;11.752;2022-08-06T03:54:54;28.95;;;9.77;;
71456;SDS011;59263;48.160;11.752;2022-08-06T03:57:23;27.10;;;10.47;;
71456;SDS011;59263;48.160;11.752;2022-08-06T03:59:53;23.33;;;10.90;;
71456;SDS011;59263;48.160;11.752;2022-08-06T04:02:29;23.08;;;10.48;;
71456;SDS011;59263;48.160;11.752;2022-08-06T04:04:57;22.77;;;10.73;;
71456;SDS011;59263;48.160;11.752;2022-08-06T04:07:24;25.10;;;10.52;;
71456;SDS011;59263;48.160;11.752;2022-08-06T04:09:50;27.83;;;11.93;;
71456;SDS011;59263;48.160;11.752;2022-08-06T04:12:16;30.98;;;12.05;;
71456;SDS011;59263;48.160;11.752;2022-08-06T04:14:42;31.10;;;12.85;;
71456;SDS011;59263;48.160;11.752;2022-08-06T04:17:07;37.63;;;13.17;;
71456;SDS011;59263;48.160;11.752;2022-08-06T04:19:34;31.27;;;12.77;;
71456;SDS011;59263;48.160;11.752;2022-08-06T04:22:00;34.22;;;13.45;;
71456;SDS011;59263;48.160;11.752;2022-08-06T04:24:25;29.40;;;12.87;;
71456;SDS011;59263;48.160;11.752;2022-08-06T04:26:51;33.13;;;13.00;;
71456;SDS011;59263;48.160;11.752;2022-08-06T04:29:19;32.70;;;13.95;;
71456;SDS011;59263;48.160;11.752;2022-08-06T04:31:48;31.38;;;14.60;;
71456;SDS011;59263;48.160;11.752;2022-08-06T04:34:22;30.88;;;14.13;;
71456;SDS011;59263;48.160;11.752;2022-08-06T04:36:49;32.25;;;14.25;;
71456;SDS011;59263;48.160;11.752;2022-08-06T04:39:15;33.50;;;14.15;;
71456;SDS011;59263;48.160;11.752;2022-08-06T04:41:42;25.30;;;12.15;;
71456;SDS011;59263;48.160;11.752;2022-08-06T04:44:07;24.65;;;12.38;;
71456;SDS011;59263;48.160;11.752;2022-08-06T04:46:33;31.23;;;13.37;;
71456;SDS011;59263;48.160;11.752;2022-08-06T04:48:59;29.85;;;13.40;;
71456;SDS011;59263;48.160;11.752;2022-08-06T04:51:25;27.07;;;12.90;;
71456;SDS011;59263;48.160;11.752;2022-08-06T04:53:50;25.73;;;12.88;;
71456;SDS011;59263;48.160;11.752;2022-08-06T04:56:16;26.87;;;12.30;;
71456;SDS011;59263;48.160;11.752;2022-08-06T04:58:41;27.80;;;12.17;;
71456;SDS011;59263;48.160;11.752;2022-08-06T05:01:07;26.63;;;12.93;;
71456;SDS011;59263;48.160;11.752;2022-08-06T05:03:32;31.13;;;13.20;;
71456;SDS011;59263;48.160;11.752;2022-08-06T05:06:07;30.35;;;14.32;;
71456;SDS011;59263;48.160;11.752;2022-08-06T05:08:36;32.13;;;14.02;;
71456;SDS011;59263;48.160;11.752;2022-08-06T05:11:10;38.95;;;14.48;;
71456;SDS011;59263;48.160;11.752;2022-08-06T05:13:40;23.98;;;12.45;;
71456;SDS011;59263;48.160;11.752;2022-08-06T05:16:09;28.25;;;12.50;;
71456;SDS011;59263;48.160;11.752;2022-08-06T05:18:51;23.05;;;12.68;;
71456;SDS011;59263;48.160;11.752;2022-08-06T05:21:25;23.77;;;13.10;;
71456;SDS011;59263;48.160;11.752;2022-08-06T05:23:55;25.98;;;13.48;;
71456;SDS011;59263;48.160;11.752;2022-08-06T05:26:22;25.25;;;14.13;;
71456;SDS011;59263;48.160;11.752;2022-08-06T05:28:48;23.88;;;12.82;;
71456;SDS011;59263;48.160;11.752;2022-08-06T05:31:15;29.70;;;15.20;;
71456;SDS011;59263;48.160;11.752;2022-08-06T05:33:52;26.65;;;14.20;;
71456;SDS011;59263;48.160;11.752;2022-08-06T05:36:18;31.85;;;16.05;;
71456;SDS011;59263;48.160;11.752;2022-08-06T05:38:43;24.83;;;14.70;;
71456;SDS011;59263;48.160;11.752;2022-08-06T05:41:10;25.60;;;14.37;;
71456;SDS011;59263;48.160;11.752;2022-08-06T05:43:36;23.10;;;11.57;;
71456;SDS011;59263;48.160;11.752;2022-08-06T05:46:07;23.20;;;13.00;;
71456;SDS011;59263;48.160;11.752;2022-08-06T05:48:36;23.45;;;12.85;;
71456;SDS011;59263;48.160;11.752;2022-08-06T05:51:07;20.60;;;11.77;;
71456;SDS011;59263;48.160;11.752;2022-08-06T05:53:41;21.98;;;12.65;;
71456;SDS011;59263;48.160;11.752;2022-08-06T05:56:14;24.48;;;13.02;;
71456;SDS011;59263;48.160;11.752;2022-08-06T05:58:54;27.02;;;14.75;;
71456;SDS011;59263;48.160;11.752;2022-08-06T06:01:22;26.25;;;15.32;;
71456;SDS011;59263;48.160;11.752;2022-08-06T06:03:48;28.60;;;17.55;;
71456;SDS011;59263;48.160;11.752;2022-08-06T06:06:15;30.85;;;18.42;;
71456;SDS011;59263;48.160;11.752;2022-08-06T06:08:41;30.42;;;19.42;;
71456;SDS011;59263;48.160;11.752;2022-08-06T06:11:07;32.57;;;18.33;;
71456;SDS011;59263;48.160;11.752;2022-08-06T06:13:34;31.10;;;18.33;;
71456;SDS011;59263;48.160;11.752;2022-08-06T06:18:40;28.23;;;16.37;;
71456;SDS011;59263;48.160;11.752;2022-08-06T06:24:00;24.15;;;16.10;;
71456;SDS011;59263;48.160;11.752;2022-08-06T06:26:35;25.05;;;15.50;;
71456;SDS011;59263;48.160;11.752;2022-08-06T06:29:08;25.52;;;15.25;;
71456;SDS011;59263;48.160;11.752;2022-08-06T06:34:41;21.13;;;13.25;;
71456;SDS011;59263;48.160;11.752;2022-08-06T06:37:15;21.85;;;14.18;;
71456;SDS011;59263;48.160;11.752;2022-08-06T06:39:48;22.60;;;13.77;;
71456;SDS011;59263;48.160;11.752;2022-08-06T06:42:24;23.55;;;14.63;;
71456;SDS011;59263;48.160;11.752;2022-08-06T06:45:02;22.30;;;13.47;;
71456;SDS011;59263;48.160;11.752;2022-08-06T06:50:21;25.95;;;14.40;;
71456;SDS011;59263;48.160;11.752;2022-08-06T06:52:51;24.55;;;14.18;;
71456;SDS011;59263;48.160;11.752;2022-08-06T06:55:21;27.52;;;15.68;;
71456;SDS011;59263;48.160;11.752;2022-08-06T06:57:51;25.80;;;14.50;;
71456;SDS011;59263;48.160;11.752;2022-08-06T07:00:21;21.15;;;13.98;;
71456;SDS011;59263;48.160;11.752;2022-08-06T07:02:48;26.98;;;14.43;;
71456;SDS011;59263;48.160;11.752;2022-08-06T07:05:15;24.63;;;15.80;;
71456;SDS011;59263;48.160;11.752;2022-08-06T07:07:41;24.77;;;13.18;;
71456;SDS011;59263;48.160;11.752;2022-08-06T07:10:11;21.33;;;12.63;;
71456;SDS011;59263;48.160;11.752;2022-08-06T07:12:39;23.88;;;13.45;;
71456;SDS011;59263;48.160;11.752;2022-08-06T07:15:07;22.70;;;13.90;;
71456;SDS011;59263;48.160;11.752;2022-08-06T07:17:34;23.80;;;12.57;;
71456;SDS011;59263;48.160;11.752;2022-08-06T07:20:02;18.77;;;11.88;;
71456;SDS011;59263;48.160;11.752;2022-08-06T07:22:32;19.83;;;12.00;;
71456;SDS011;59263;48.160;11.752;2022-08-06T07:25:03;19.90;;;11.20;;
71456;SDS011;59263;48.160;11.752;2022-08-06T07:27:36;22.15;;;13.15;;
71456;SDS011;59263;48.160;11.752;2022-08-06T07:30:04;23.15;;;12.57;;
71456;SDS011;59263;48.160;11.752;2022-08-06T07:32:32;16.35;;;10.93;;
71456;SDS011;59263;48.160;11.752;2022-08-06T07:34:59;21.00;;;12.53;;
71456;SDS011;59263;48.160;11.752;2022-08-06T07:37:25;19.67;;;12.23;;
71456;SDS011;59263;48.160;11.752;2022-08-06T07:39:52;19.40;;;12.05;;
71456;SDS011;59263;48.160;11.752;2022-08-06T07:42:20;20.23;;;12.75;;
71456;SDS011;59263;48.160;11.752;2022-08-06T07:44:53;26.38;;;14.20;;
71456;SDS011;59263;48.160;11.752;2022-08-06T07:47:25;21.83;;;12.87;;
71456;SDS011;59263;48.160;11.752;2022-08-06T07:49:59;21.63;;;13.85;;
71456;SDS011;59263;48.160;11.752;2022-08-06T07:52:24;22.77;;;14.07;;
71456;SDS011;59263;48.160;11.752;2022-08-06T07:54:50;25.85;;;14.30;;
71456;SDS011;59263;48.160;11.752;2022-08-06T07:57:17;23.25;;;14.25;;
71456;SDS011;59263;48.160;11.752;2022-08-06T07:59:43;23.02;;;14.18;;
71456;SDS011;59263;48.160;11.752;2022-08-06T08:02:09;24.77;;;13.95;;
71456;SDS011;59263;48.160;11.752;2022-08-06T08:04:36;27.65;;;14.40;;
71456;SDS011;59263;48.160;11.752;2022-08-06T08:07:21;29.23;;;15.57;;
71456;SDS011;59263;48.160;11.752;2022-08-06T08:09:48;27.10;;;15.90;;
71456;SDS011;59263;48.160;11.752;2022-08-06T08:12:15;28.30;;;16.20;;
71456;SDS011;59263;48.160;11.752;2022-08-06T08:14:46;32.90;;;16.63;;
71456;SDS011;59263;48.160;11.752;2022-08-06T08:17:13;29.20;;;16.45;;
71456;SDS011;59263;48.160;11.752;2022-08-06T08:19:39;27.30;;;16.17;;
71456;SDS011;59263;48.160;11.752;2022-08-06T08:22:06;28.95;;;16.40;;
71456;SDS011;59263;48.160;11.752;2022-08-06T08:24:34;27.63;;;16.15;;
71456;SDS011;59263;48.160;11.752;2022-08-06T08:27:01;27.17;;;16.30;;
71456;SDS011;59263;48.160;11.752;2022-08-06T08:29:35;30.40;;;16.47;;
71456;SDS011;59263;48.160;11.752;2022-08-06T08:32:05;30.70;;;18.00;;
71456;SDS011;59263;48.160;11.752;2022-08-06T08:34:31;28.73;;;16.85;;
71456;SDS011;59263;48.160;11.752;2022-08-06T08:36:57;33.67;;;17.23;;
71456;SDS011;59263;48.160;11.752;2022-08-06T08:39:23;29.53;;;16.50;;
71456;SDS011;59263;48.160;11.752;2022-08-06T08:41:50;26.83;;;15.63;;
71456;SDS011;59263;48.160;11.752;2022-08-06T08:44:22;29.65;;;17.02;;
71456;SDS011;59263;48.160;11.752;2022-08-06T08:46:49;24.52;;;15.65;;
71456;SDS011;59263;48.160;11.752;2022-08-06T08:49:18;25.40;;;14.95;;
71456;SDS011;59263;48.160;11.752;2022-08-06T08:52:01;30.27;;;15.15;;
71456;SDS011;59263;48.160;11.752;2022-08-06T08:54:29;35.03;;;17.73;;
71456;SDS011;59263;48.160;11.752;2022-08-06T08:56:58;31.88;;;17.13;;
71456;SDS011;59263;48.160;11.752;2022-08-06T08:59:24;31.17;;;17.93;;
71456;SDS011;59263;48.160;11.752;2022-08-06T09:01:50;29.92;;;16.25;;
71456;SDS011;59263;48.160;11.752;2022-08-06T09:04:16;34.42;;;18.83;;
71456;SDS011;59263;48.160;11.752;2022-08-06T09:06:42;36.17;;;18.47;;
71456;SDS011;59263;48.160;11.752;2022-08-06T09:09:08;31.33;;;17.40;;
71456;SDS011;59263;48.160;11.752;2022-08-06T09:11:34;28.57;;;16.53;;
71456;SDS011;59263;48.160;11.752;2022-08-06T09:14:01;32.83;;;17.67;;
71456;SDS011;59263;48.160;11.752;2022-08-06T09:16:31;32.47;;;18.25;;
71456;SDS011;59263;48.160;11.752;2022-08-06T09:19:00;28.52;;;17.13;;
71456;SDS011;59263;48.160;11.752;2022-08-06T09:21:27;37.22;;;18.85;;
71456;SDS011;59263;48.160;11.752;2022-08-06T09:23:54;34.65;;;19.05;;
71456;SDS011;59263;48.160;11.752;2022-08-06T09:26:20;35.88;;;19.08;;
71456;SDS011;59263;48.160;11.752;2022-08-06T09:28:45;33.23;;;18.80;;
71456;SDS011;59263;48.160;11.752;2022-08-06T09:31:15;34.20;;;19.13;;
71456;SDS011;59263;48.160;11.752;2022-08-06T09:34:03;35.97;;;19.13;;
71456;SDS011;59263;48.160;11.752;2022-08-06T09:36:43;40.42;;;22.38;;
71456;SDS011;59263;48.160;11.752;2022-08-06T09:39:09;36.53;;;21.08;;
71456;SDS011;59263;48.160;11.752;2022-08-06T09:41:44;31.33;;;18.03;;
71456;SDS011;59263;48.160;11.752;2022-08-06T09:44:13;32.47;;;18.95;;
71456;SDS011;59263;48.160;11.752;2022-08-06T09:46:43;35.05;;;20.63;;
71456;SDS011;59263;48.160;11.752;2022-08-06T09:49:10;36.17;;;19.67;;
71456;SDS011;59263;48.160;11.752;2022-08-06T09:51:37;33.60;;;19.90;;
71456;SDS011;59263;48.160;11.752;2022-08-06T09:54:04;39.80;;;20.73;;
71456;SDS011;59263;48.160;11.752;2022-08-06T09:56:31;36.60;;;20.92;;
71456;SDS011;59263;48.160;11.752;2022-08-06T09:58:58;31.80;;;18.02;;
71456;SDS011;59263;48.160;11.752;2022-08-06T10:01:25;30.13;;;17.17;;
71456;SDS011;59263;48.160;11.752;2022-08-06T10:03:53;30.00;;;17.67;;
71456;SDS011;59263;48.160;11.752;2022-08-06T10:06:20;34.55;;;17.65;;
71456;SDS011;59263;48.160;11.752;2022-08-06T10:08:46;38.30;;;19.40;;
71456;SDS011;59263;48.160;11.752;2022-08-06T10:11:13;35.75;;;19.05;;
71456;SDS011;59263;48.160;11.752;2022-08-06T10:13:39;30.17;;;18.25;;
71456;SDS011;59263;48.160;11.752;2022-08-06T10:16:18;35.22;;;18.63;;
71456;SDS011;59263;48.160;11.752;2022-08-06T10:18:46;29.15;;;17.13;;
71456;SDS011;59263;48.160;11.752;2022-08-06T10:21:17;30.52;;;17.67;;
71456;SDS011;59263;48.160;11.752;2022-08-06T10:23:47;27.65;;;17.30;;
71456;SDS011;59263;48.160;11.752;2022-08-06T10:26:16;25.77;;;16.83;;
71456;SDS011;59263;48.160;11.752;2022-08-06T10:28:47;27.63;;;17.20;;
71456;SDS011;59263;48.160;11.752;2022-08-06T10:31:15;31.20;;;17.88;;
71456;SDS011;59263;48.160;11.752;2022-08-06T10:36:16;32.63;;;17.65;;
71456;SDS011;59263;48.160;11.752;2022-08-06T10:38:46;29.27;;;17.58;;
71456;SDS011;59263;48.160;11.752;2022-08-06T10:41:15;27.00;;;16.70;;
71456;SDS011;59263;48.160;11.752;2022-08-06T10:43:42;27.20;;;17.38;;
71456;SDS011;59263;48.160;11.752;2022-08-06T10:46:10;26.93;;;17.23;;
71456;SDS011;59263;48.160;11.752;2022-08-06T10:48:45;25.98;;;15.70;;
71456;SDS011;59263;48.160;11.752;2022-08-06T10:51:14;26.33;;;15.50;;
71456;SDS011;59263;48.160;11.752;2022-08-06T10:53:41;24.48;;;15.35;;
71456;SDS011;59263;48.160;11.752;2022-08-06T10:56:09;22.75;;;15.00;;
71456;SDS011;59263;48.160;11.752;2022-08-06T10:58:36;20.15;;;13.63;;
71456;SDS011;59263;48.160;11.752;2022-08-06T11:01:05;21.58;;;14.95;;
71456;SDS011;59263;48.160;11.752;2022-08-06T11:06:15;22.50;;;14.52;;
71456;SDS011;59263;48.160;11.752;2022-08-06T11:09:04;19.45;;;13.13;;
71456;SDS011;59263;48.160;11.752;2022-08-06T11:14:09;25.02;;;15.23;;
71456;SDS011;59263;48.160;11.752;2022-08-06T11:16:35;24.50;;;15.00;;
71456;SDS011;59263;48.160;11.752;2022-08-06T11:19:09;25.67;;;15.13;;
71456;SDS011;59263;48.160;11.752;2022-08-06T11:21:42;26.05;;;15.15;;
71456;SDS011;59263;48.160;11.752;2022-08-06T11:24:09;25.35;;;15.60;;
71456;SDS011;59263;48.160;11.752;2022-08-06T11:26:37;20.90;;;14.25;;
71456;SDS011;59263;48.160;11.752;2022-08-06T11:29:08;17.23;;;11.67;;
71456;SDS011;59263;48.160;11.752;2022-08-06T11:31:38;19.75;;;12.77;;
71456;SDS011;59263;48.160;11.752;2022-08-06T11:34:07;19.67;;;13.25;;
71456;SDS011;59263;48.160;11.752;2022-08-06T11:36:45;18.98;;;12.63;;
71456;SDS011;59263;48.160;11.752;2022-08-06T11:39:18;22.98;;;14.13;;
71456;SDS011;59263;48.160;11.752;2022-08-06T11:41:51;23.57;;;14.23;;
71456;SDS011;59263;48.160;11.752;2022-08-06T11:44:31;21.58;;;13.88;;
71456;SDS011;59263;48.160;11.752;2022-08-06T11:47:11;20.83;;;13.85;;
71456;SDS011;59263;48.160;11.752;2022-08-06T11:49:39;22.02;;;13.07;;
71456;SDS011;59263;48.160;11.752;2022-08-06T11:54:59;20.63;;;13.80;;
71456;SDS011;59263;48.160;11.752;2022-08-06T11:57:26;19.67;;;13.30;;
71456;SDS011;59263;48.160;11.752;2022-08-06T12:05:04;20.98;;;14.65;;
71456;SDS011;59263;48.160;11.752;2022-08-06T12:07:30;27.05;;;16.52;;
71456;SDS011;59263;48.160;11.752;2022-08-06T12:17:26;25.13;;;14.80;;
71456;SDS011;59263;48.160;11.752;2022-08-06T12:19:57;22.17;;;15.45;;
71456;SDS011;59263;48.160;11.752;2022-08-06T12:22:27;23.15;;;15.32;;
71456;SDS011;59263;48.160;11.752;2022-08-06T12:24:54;23.93;;;15.13;;
71456;SDS011;59263;48.160;11.752;2022-08-06T12:27:23;21.40;;;14.52;;
71456;SDS011;59263;48.160;11.752;2022-08-06T12:29:58;22.33;;;15.35;;
71456;SDS011;59263;48.160;11.752;2022-08-06T12:32:27;25.13;;;14.68;;
71456;SDS011;59263;48.160;11.752;2022-08-06T12:35:01;26.30;;;16.17;;
71456;SDS011;59263;48.160;11.752;2022-08-06T12:37:36;23.33;;;14.73;;
71456;SDS011;59263;48.160;11.752;2022-08-06T12:40:15;27.25;;;16.08;;
71456;SDS011;59263;48.160;11.752;2022-08-06T12:42:53;24.17;;;15.77;;
71456;SDS011;59263;48.160;11.752;2022-08-06T12:45:20;22.52;;;13.88;;
71456;SDS011;59263;48.160;11.752;2022-08-06T12:47:59;22.23;;;13.95;;
71456;SDS011;59263;48.160;11.752;2022-08-06T12:50:26;25.70;;;13.90;;
71456;SDS011;59263;48.160;11.752;2022-08-06T12:55:36;22.42;;;13.88;;
71456;SDS011;59263;48.160;11.752;2022-08-06T12:58:07;19.02;;;13.45;;
71456;SDS011;59263;48.160;11.752;2022-08-06T13:00:35;20.85;;;13.48;;
71456;SDS011;59263;48.160;11.752;2022-08-06T13:03:01;18.77;;;12.50;;
71456;SDS011;59263;48.160;11.752;2022-08-06T13:05:29;20.95;;;13.63;;
71456;SDS011;59263;48.160;11.752;2022-08-06T13:07:55;20.17;;;13.73;;
71456;SDS011;59263;48.160;11.752;2022-08-06T13:10:22;19.88;;;13.30;;
71456;SDS011;59263;48.160;11.752;2022-08-06T13:13:01;18.80;;;12.47;;
71456;SDS011;59263;48.160;11.752;2022-08-06T13:15:28;24.08;;;14.30;;
71456;SDS011;59263;48.160;11.752;2022-08-06T13:18:12;20.08;;;12.57;;
71456;SDS011;59263;48.160;11.752;2022-08-06T13:23:08;19.83;;;12.77;;
71456;SDS011;59263;48.160;11.752;2022-08-06T13:25:48;16.35;;;10.95;;
71456;SDS011;59263;48.160;11.752;2022-08-06T13:28:18;17.33;;;11.50;;
71456;SDS011;59263;48.160;11.752;2022-08-06T13:30:47;17.67;;;11.80;;
71456;SDS011;59263;48.160;11.752;2022-08-06T13:33:17;19.60;;;12.23;;
71456;SDS011;59263;48.160;11.752;2022-08-06T13:35:46;16.23;;;10.80;;
71456;SDS011;59263;48.160;11.752;2022-08-06T13:38:32;15.63;;;9.90;;
71456;SDS011;59263;48.160;11.752;2022-08-06T13:40:59;14.83;;;9.57;;
71456;SDS011;59263;48.160;11.752;2022-08-06T13:46:13;17.13;;;10.02;;
71456;SDS011;59263;48.160;11.752;2022-08-06T13:48:41;14.80;;;9.20;;
71456;SDS011;59263;48.160;11.752;2022-08-06T13:51:10;14.85;;;8.77;;
71456;SDS011;59263;48.160;11.752;2022-08-06T13:53:37;19.45;;;9.68;;
71456;SDS011;59263;48.160;11.752;2022-08-06T13:56:03;16.45;;;9.98;;
71456;SDS011;59263;48.160;11.752;2022-08-06T13:58:28;16.03;;;10.20;;
71456;SDS011;59263;48.160;11.752;2022-08-06T14:00:54;15.95;;;9.15;;
71456;SDS011;59263;48.160;11.752;2022-08-06T14:03:19;15.47;;;9.87;;
71456;SDS011;59263;48.160;11.752;2022-08-06T14:05:45;17.00;;;10.17;;
71456;SDS011;59263;48.160;11.752;2022-08-06T14:08:10;16.27;;;9.77;;
71456;SDS011;59263;48.160;11.752;2022-08-06T14:10:36;14.07;;;9.32;;
71456;SDS011;59263;48.160;11.752;2022-08-06T14:13:01;14.00;;;9.20;;
71456;SDS011;59263;48.160;11.752;2022-08-06T14:15:42;15.27;;;9.38;;
71456;SDS011;59263;48.160;11.752;2022-08-06T14:18:08;16.63;;;10.13;;
71456;SDS011;59263;48.160;11.752;2022-08-06T14:20:34;15.68;;;10.38;;
71456;SDS011;59263;48.160;11.752;2022-08-06T14:22:59;14.53;;;9.50;;
71456;SDS011;59263;48.160;11.752;2022-08-06T14:25:25;15.13;;;9.37;;
71456;SDS011;59263;48.160;11.752;2022-08-06T14:27:51;16.52;;;9.32;;
71456;SDS011;59263;48.160;11.752;2022-08-06T14:30:18;13.57;;;8.70;;
71456;SDS011;59263;48.160;11.752;2022-08-06T14:32:44;14.10;;;8.25;;
71456;SDS011;59263;48.160;11.752;2022-08-06T14:35:10;13.53;;;8.23;;
71456;SDS011;59263;48.160;11.752;2022-08-06T14:37:35;15.38;;;9.02;;
71456;SDS011;59263;48.160;11.752;2022-08-06T14:40:01;14.67;;;9.33;;
71456;SDS011;59263;48.160;11.752;2022-08-06T14:42:28;15.80;;;9.63;;
71456;SDS011;59263;48.160;11.752;2022-08-06T14:45:12;18.53;;;8.97;;
71456;SDS011;59263;48.160;11.752;2022-08-06T14:47:37;14.27;;;8.38;;
71456;SDS011;59263;48.160;11.752;2022-08-06T14:50:02;13.18;;;8.40;;
71456;SDS011;59263;48.160;11.752;2022-08-06T14:52:29;13.53;;;7.33;;
71456;SDS011;59263;48.160;11.752;2022-08-06T14:54:54;12.35;;;8.00;;
71456;SDS011;59263;48.160;11.752;2022-08-06T14:57:20;15.07;;;7.97;;
71456;SDS011;59263;48.160;11.752;2022-08-06T14:59:45;12.97;;;7.93;;
71456;SDS011;59263;48.160;11.752;2022-08-06T15:02:11;11.88;;;7.35;;
71456;SDS011;59263;48.160;11.752;2022-08-06T15:04:37;12.67;;;7.53;;
71456;SDS011;59263;48.160;11.752;2022-08-06T15:07:04;12.93;;;8.10;;
71456;SDS011;59263;48.160;11.752;2022-08-06T15:09:29;11.68;;;6.85;;
71456;SDS011;59263;48.160;11.752;2022-08-06T15:11:56;12.77;;;7.00;;
71456;SDS011;59263;48.160;11.752;2022-08-06T15:14:22;13.00;;;7.10;;
71456;SDS011;59263;48.160;11.752;2022-08-06T15:16:48;12.83;;;7.83;;
71456;SDS011;59263;48.160;11.752;2022-08-06T15:19:13;13.00;;;8.00;;